Time;durP1;ratioP1;P1;durP2;ratioP2;P2;SDS_P1;SDS_P2;PMS_P1;PMS_P2;Temp;Humidity;BMP_temperature;BMP_pressure;BME280_temperature;BME280_humidity;BME280_pressure;Samples;Min_cycle;Max_cycle;Signal;HPM_P1;HPM_P2
2020/12/19 00:00:12;;;;;;;4.17;3.20;;;;;;;6.88;100.00;98495.09;5091291;28;20691;-74
2020/12/19 00:02:39;;;;;;;5.13;2.90;;;;;;;6.97;100.00;98499.44;5091370;28;20614;-76
2020/12/19 00:05:06;;;;;;;5.00;3.20;;;;;;;7.10;100.00;98499.75;5091050;28;20968;-75
2020/12/19 00:07:33;;;;;;;4.93;3.07;;;;;;;7.17;100.00;98493.63;5091018;28;20281;-73
2020/12/19 00:10:00;;;;;;;6.10;2.83;;;;;;;7.23;100.00;98484.97;5089066;28;20230;-72
2020/12/19 00:12:28;;;;;;;5.30;3.23;;;;;;;7.31;100.00;98490.25;5091322;28;20205;-75
2020/12/19 00:14:54;;;;;;;5.83;2.73;;;;;;;7.35;100.00;98485.44;5089873;28;20207;-73
2020/12/19 00:17:21;;;;;;;5.37;3.00;;;;;;;7.33;100.00;98490.94;5076084;28;20217;-75
2020/12/19 00:19:48;;;;;;;6.97;3.23;;;;;;;7.36;100.00;98481.81;5094022;28;20568;-75
2020/12/19 00:22:15;;;;;;;5.00;2.70;;;;;;;7.31;100.00;98484.94;5094387;28;20205;-75
2020/12/19 00:24:42;;;;;;;5.17;3.07;;;;;;;7.38;100.00;98482.44;5094259;28;20228;-74
2020/12/19 00:27:12;;;;;;;4.83;2.80;;;;;;;7.40;100.00;98483.94;5094842;28;20224;-75
2020/12/19 00:29:39;;;;;;;4.90;3.30;;;;;;;7.35;100.00;98473.00;5094694;28;20207;-73
2020/12/19 00:32:08;;;;;;;5.00;3.00;;;;;;;7.35;100.00;98478.31;5094689;28;20294;-73
2020/12/19 00:34:35;;;;;;;4.53;2.87;;;;;;;7.36;100.00;98473.84;5094852;28;20202;-73
2020/12/19 00:37:02;;;;;;;4.43;2.80;;;;;;;7.16;100.00;98468.06;5087924;28;20592;-73
2020/12/19 00:39:29;;;;;;;4.53;2.90;;;;;;;7.00;100.00;98473.38;5079214;28;20828;-75
2020/12/19 00:41:56;;;;;;;4.87;2.67;;;;;;;6.90;100.00;98469.25;5080272;28;20343;-73
2020/12/19 00:44:23;;;;;;;3.47;2.30;;;;;;;6.84;100.00;98465.44;5094801;28;20602;-73
2020/12/19 00:46:51;;;;;;;3.97;2.40;;;;;;;6.90;100.00;98469.25;5096992;28;20262;-73
2020/12/19 00:49:18;;;;;;;8.20;3.30;;;;;;;6.83;100.00;98461.13;5096769;28;20204;-73
2020/12/19 00:51:45;;;;;;;5.63;3.10;;;;;;;6.84;100.00;98456.63;5093434;28;20241;-74
2020/12/19 00:54:12;;;;;;;6.50;3.53;;;;;;;6.55;100.00;98453.69;5082234;28;20203;-73
2020/12/19 00:56:39;;;;;;;5.60;3.33;;;;;;;6.74;100.00;98461.28;5095440;28;20251;-75
2020/12/19 00:59:06;;;;;;;4.33;2.77;;;;;;;6.70;100.00;98449.38;5095493;28;20204;-75
2020/12/19 01:01:33;;;;;;;4.90;2.90;;;;;;;6.68;100.00;98452.19;5094686;28;20204;-74
2020/12/19 01:04:01;;;;;;;6.67;3.63;;;;;;;6.70;100.00;98452.84;5097961;28;20204;-72
2020/12/19 01:06:29;;;;;;;4.53;2.80;;;;;;;6.64;100.00;98453.50;5091896;28;20224;-75
2020/12/19 01:08:57;;;;;;;5.27;3.33;;;;;;;6.64;100.00;98453.50;5082302;28;20845;-73
2020/12/19 01:11:26;;;;;;;5.67;3.07;;;;;;;6.70;100.00;98450.19;5086918;28;20211;-73
2020/12/19 01:13:53;;;;;;;7.40;3.10;;;;;;;6.72;100.00;98455.31;5098068;28;20335;-73
2020/12/19 01:16:21;;;;;;;4.90;3.10;;;;;;;6.69;100.00;98448.53;5094572;28;20699;-74
2020/12/19 01:18:50;;;;;;;4.03;2.90;;;;;;;6.70;100.00;98452.84;5094291;28;20208;-73
2020/12/19 01:21:19;;;;;;;4.50;3.07;;;;;;;6.66;100.00;98456.81;5092928;28;20206;-73
2020/12/19 01:23:46;;;;;;;4.43;2.90;;;;;;;6.72;100.00;98448.22;5083087;28;20653;-72
2020/12/19 01:26:14;;;;;;;3.40;2.57;;;;;;;6.88;100.00;98442.06;5091049;28;20225;-73
2020/12/19 01:28:41;;;;;;;6.50;3.50;;;;;;;6.88;100.00;98440.25;5093416;28;20203;-73
2020/12/19 01:31:09;;;;;;;5.50;2.93;;;;;;;6.82;100.00;98448.88;5093464;28;20203;-73
2020/12/19 01:33:36;;;;;;;5.53;3.03;;;;;;;6.85;100.00;98440.56;5093775;28;20201;-73
2020/12/19 01:36:04;;;;;;;5.50;3.47;;;;;;;6.79;100.00;98451.00;5088205;28;20208;-73
2020/12/19 01:38:31;;;;;;;6.03;3.43;;;;;;;6.75;100.00;98444.41;5082675;28;20211;-73
2020/12/19 01:40:58;;;;;;;5.43;2.90;;;;;;;6.85;100.00;98451.16;5093324;28;20213;-73
2020/12/19 01:43:25;;;;;;;5.33;3.07;;;;;;;6.76;100.00;98449.50;5093053;28;20200;-73
2020/12/19 01:45:52;;;;;;;5.23;2.87;;;;;;;6.67;100.00;98437.28;5092953;28;20234;-74
2020/12/19 01:48:22;;;;;;;6.13;3.37;;;;;;;6.72;100.00;98444.72;5092883;28;20203;-73
2020/12/19 01:50:49;;;;;;;4.50;2.83;;;;;;;6.87;100.00;98440.41;5093312;28;20549;-73
2020/12/19 01:53:16;;;;;;;6.60;3.27;;;;;;;6.82;100.00;98435.59;5078328;28;20222;-73
2020/12/19 01:55:44;;;;;;;4.53;2.97;;;;;;;6.85;100.00;98434.44;5093110;28;20580;-73
2020/12/19 01:58:11;;;;;;;4.27;2.43;;;;;;;6.98;100.00;98432.94;5092575;28;20222;-74
2020/12/19 02:00:39;;;;;;;6.87;2.53;;;;;;;7.08;100.00;98430.09;5092931;28;20253;-73
2020/12/19 02:03:06;;;;;;;6.47;3.00;;;;;;;7.09;100.00;98429.94;5092763;28;20277;-74
2020/12/19 02:05:34;;;;;;;4.60;2.50;;;;;;;7.12;100.00;98428.75;5092330;28;20215;-73
2020/12/19 02:08:01;;;;;;;4.37;2.63;;;;;;;7.11;100.00;98435.88;5078130;28;20623;-73
2020/12/19 02:10:32;;;;;;;5.20;3.37;;;;;;;7.03;100.00;98432.41;5090445;28;20197;-73
2020/12/19 02:13:00;;;;;;;4.47;2.70;;;;;;;6.99;100.00;98434.59;5092937;28;20207;-74
2020/12/19 02:15:26;;;;;;;4.23;2.43;;;;;;;6.99;100.00;98437.25;5092491;28;20568;-73
2020/12/19 02:17:53;;;;;;;5.53;2.73;;;;;;;7.07;100.00;98417.81;5092748;28;20220;-72
2020/12/19 02:20:20;;;;;;;3.90;2.20;;;;;;;7.10;100.00;98425.47;5092163;28;20655;-73
2020/12/19 02:22:47;;;;;;;4.67;2.63;;;;;;;7.09;100.00;98421.97;5079777;28;20212;-72
2020/12/19 02:25:15;;;;;;;5.97;2.83;;;;;;;7.07;100.00;98410.69;5088844;28;20237;-72
2020/12/19 02:27:41;;;;;;;4.47;2.87;;;;;;;7.05;100.00;98412.69;5092612;28;20307;-73
2020/12/19 02:30:08;;;;;;;3.80;2.50;;;;;;;6.99;100.00;98418.66;5092592;28;20576;-73
2020/12/19 02:32:35;;;;;;;4.53;2.57;;;;;;;7.01;100.00;98410.53;5092614;28;20287;-72
2020/12/19 02:35:02;;;;;;;4.03;2.40;;;;;;;7.08;100.00;98406.19;5085916;28;20212;-73
2020/12/19 02:37:29;;;;;;;5.17;2.47;;;;;;;7.08;100.00;98412.34;5085702;28;20220;-73
2020/12/19 02:39:55;;;;;;;4.77;2.60;;;;;;;6.96;100.00;98413.69;5085280;28;20217;-73
2020/12/19 02:42:23;;;;;;;4.40;2.83;;;;;;;6.84;100.00;98409.72;5092026;28;20721;-72
2020/12/19 02:44:50;;;;;;;5.83;2.43;;;;;;;6.68;100.00;98417.72;5092588;28;20213;-73
2020/12/19 02:47:16;;;;;;;4.50;2.20;;;;;;;6.73;100.00;98399.47;5089945;28;20698;-72
2020/12/19 02:49:43;;;;;;;5.70;2.53;;;;;;;6.74;100.00;98395.81;5088195;28;20227;-72
2020/12/19 02:52:10;;;;;;;4.23;2.27;;;;;;;6.65;100.00;98399.47;5091600;28;20196;-72
2020/12/19 02:54:37;;;;;;;5.07;2.60;;;;;;;6.61;100.00;98395.47;5092615;28;20201;-74
2020/12/19 02:57:03;;;;;;;4.10;2.40;;;;;;;6.52;100.00;98407.09;5092096;28;20232;-72
2020/12/19 02:59:31;;;;;;;4.10;2.53;;;;;;;6.55;100.00;98408.59;5092294;28;20828;-72
2020/12/19 03:01:58;;;;;;;4.00;2.53;;;;;;;6.54;100.00;98402.44;5091687;28;20216;-72
2020/12/19 03:04:25;;;;;;;4.63;2.40;;;;;;;6.52;100.00;98400.97;5089487;28;20200;-73
2020/12/19 03:06:51;;;;;;;3.97;2.57;;;;;;;6.54;100.00;98404.28;5071686;28;20310;-73
2020/12/19 03:09:20;;;;;;;3.63;2.40;;;;;;;6.52;100.00;98400.97;5089002;28;20214;-72
2020/12/19 03:11:47;;;;;;;4.07;2.27;;;;;;;6.50;100.00;98397.66;5091982;28;20210;-73
2020/12/19 03:14:14;;;;;;;3.07;2.10;;;;;;;6.49;100.00;98402.13;5091738;28;20599;-75
2020/12/19 03:16:41;;;;;;;6.13;2.90;;;;;;;6.39;100.00;98401.47;5083777;28;20237;-72
2020/12/19 03:19:08;;;;;;;4.17;2.40;;;;;;;6.48;100.00;98404.94;5084250;28;20565;-73
2020/12/19 03:21:35;;;;;;;4.53;2.30;;;;;;;6.50;100.00;98402.97;5086885;28;20229;-73
2020/12/19 03:24:01;;;;;;;4.43;2.57;;;;;;;6.37;100.00;98398.16;5091891;28;20257;-72
2020/12/19 03:26:29;;;;;;;4.23;2.97;;;;;;;6.28;100.00;98399.13;5091380;28;20623;-74
2020/12/19 03:28:55;;;;;;;6.17;2.60;;;;;;;6.33;100.00;98401.28;5091487;28;20351;-73
2020/12/19 03:31:22;;;;;;;2.80;2.30;;;;;;;6.27;100.00;98402.78;5091593;28;20195;-72
2020/12/19 03:33:50;;;;;;;4.47;2.60;;;;;;;6.25;100.00;98394.16;5086854;28;20201;-73
2020/12/19 03:36:17;;;;;;;3.90;2.20;;;;;;;6.19;100.00;98399.31;5081939;28;21114;-73
2020/12/19 03:38:43;;;;;;;3.67;2.50;;;;;;;6.25;100.00;98399.44;5091941;28;20230;-73
2020/12/19 03:41:10;;;;;;;6.33;2.90;;;;;;;5.92;100.00;98391.63;5091592;28;20211;-72
2020/12/19 03:43:37;;;;;;;4.10;2.00;;;;;;;6.14;100.00;98383.88;5090970;28;20214;-72
2020/12/19 03:46:04;;;;;;;2.90;2.37;;;;;;;6.17;100.00;98390.69;5091372;28;20216;-73
2020/12/19 03:48:31;;;;;;;7.30;2.83;;;;;;;6.21;100.00;98386.72;5088997;28;20225;-72
2020/12/19 03:50:58;;;;;;;3.63;2.57;;;;;;;6.14;100.00;98391.03;5085445;28;20204;-73
2020/12/19 03:53:25;;;;;;;4.23;2.53;;;;;;;6.00;100.00;98389.00;5093468;28;20211;-72
2020/12/19 03:55:52;;;;;;;4.77;2.73;;;;;;;6.01;100.00;98380.91;5095471;28;20199;-72
2020/12/19 03:58:19;;;;;;;5.50;2.70;;;;;;;5.97;100.00;98384.03;5094777;28;20212;-72
2020/12/19 04:00:45;;;;;;;3.83;2.63;;;;;;;5.97;100.00;98379.56;5095279;28;20659;-72
2020/12/19 04:03:12;;;;;;;3.70;2.30;;;;;;;5.94;100.00;98381.72;5094957;28;20213;-72
2020/12/19 04:05:39;;;;;;;3.90;2.40;;;;;;;5.91;100.00;98374.09;5074907;28;20296;-72
2020/12/19 04:08:07;;;;;;;5.33;2.53;;;;;;;5.85;100.00;98382.69;5090350;28;20231;-72
2020/12/19 04:10:34;;;;;;;3.87;2.53;;;;;;;5.86;100.00;98377.22;5095386;28;20198;-72
2020/12/19 04:13:00;;;;;;;4.57;2.60;;;;;;;5.96;100.00;98380.56;5095018;28;20218;-73
2020/12/19 04:15:27;;;;;;;4.00;2.40;;;;;;;5.99;100.00;98369.63;5095033;28;20548;-73
2020/12/19 04:17:55;;;;;;;4.17;2.43;;;;;;;5.90;100.00;98365.28;5094448;28;20227;-73
2020/12/19 04:20:22;;;;;;;6.17;2.50;;;;;;;5.82;100.00;98369.75;5089860;28;20611;-73
2020/12/19 04:22:49;;;;;;;4.17;2.67;;;;;;;5.87;100.00;98367.44;5087807;28;20293;-73
2020/12/19 04:25:17;;;;;;;7.17;2.57;;;;;;;5.77;100.00;98362.28;5094877;28;20640;-73
2020/12/19 04:27:44;;;;;;;3.60;2.70;;;;;;;5.70;100.00;98361.28;5094745;28;20268;-73
2020/12/19 04:30:11;;;;;;;5.33;3.10;;;;;;;5.88;100.00;98353.22;5095059;28;20231;-73
2020/12/19 04:32:39;;;;;;;3.90;2.93;;;;;;;5.91;100.00;98351.09;5094211;28;20660;-73
2020/12/19 04:35:07;;;;;;;4.07;2.53;;;;;;;5.85;100.00;98350.91;5079274;28;20215;-73
2020/12/19 04:37:33;;;;;;;5.50;3.00;;;;;;;5.87;100.00;98349.75;5088925;28;20644;-74
2020/12/19 04:40:00;;;;;;;4.30;2.67;;;;;;;5.88;100.00;98350.56;5089706;28;20197;-74
2020/12/19 04:42:28;;;;;;;5.33;2.73;;;;;;;5.91;100.00;98351.09;5094221;28;20207;-74
2020/12/19 04:44:55;;;;;;;4.33;2.60;;;;;;;5.97;100.00;98354.88;5091846;28;20201;-74
2020/12/19 04:47:22;;;;;;;5.40;2.97;;;;;;;5.85;100.00;98354.34;5090712;28;20220;-74
2020/12/19 04:49:48;;;;;;;6.27;3.50;;;;;;;5.85;100.00;98358.84;5094554;28;20206;-74
2020/12/19 04:52:16;;;;;;;5.37;2.90;;;;;;;5.79;100.00;98351.53;5094157;28;20192;-72
2020/12/19 04:54:43;;;;;;;3.80;2.67;;;;;;;5.74;100.00;98356.47;5094240;28;20215;-74
2020/12/19 04:57:17;;;;;;;5.93;3.20;;;;;;;5.77;100.00;98359.63;5093640;28;20249;-74
2020/12/19 04:59:45;;;;;;;5.47;3.03;;;;;;;5.67;100.00;98356.28;5094491;28;20661;-72
2020/12/19 05:02:12;;;;;;;5.43;3.17;;;;;;;5.68;100.00;98354.50;5085362;28;20261;-73
2020/12/19 05:04:39;;;;;;;5.73;3.30;;;;;;;5.66;100.00;98353.81;5085387;28;20202;-73
2020/12/19 05:07:07;;;;;;;9.67;3.53;;;;;;;5.67;100.00;98353.66;5094359;28;20242;-73
2020/12/19 05:09:37;;;;;;;4.40;3.17;;;;;;;5.65;100.00;98358.28;5090318;28;20659;-74
2020/12/19 05:12:04;;;;;;;6.73;3.53;;;;;;;5.62;100.00;98361.25;5093684;28;20190;-74
2020/12/19 05:14:32;;;;;;;6.10;3.23;;;;;;;5.62;100.00;98358.59;5092478;28;20203;-74
2020/12/19 05:17:00;;;;;;;7.20;4.27;;;;;;;5.63;100.00;98356.78;5093120;28;20222;-74
2020/12/19 05:19:27;;;;;;;6.60;3.37;;;;;;;5.56;100.00;98358.41;5093537;28;20577;-74
2020/12/19 05:21:55;;;;;;;6.73;3.40;;;;;;;5.57;100.00;98357.41;5093517;28;20567;-74
2020/12/19 05:24:27;;;;;;;6.73;3.27;;;;;;;5.48;100.00;98348.63;5093477;28;20235;-73
2020/12/19 05:26:54;;;;;;;5.30;3.47;;;;;;;5.55;100.00;98356.75;5092946;28;20225;-74
2020/12/19 05:29:21;;;;;;;7.70;3.70;;;;;;;5.44;100.00;98355.22;5086957;28;20208;-74
2020/12/19 05:31:56;;;;;;;6.50;4.13;;;;;;;5.44;100.00;98349.91;5077700;28;20209;-74
2020/12/19 05:34:24;;;;;;;7.50;4.00;;;;;;;5.33;100.00;98355.50;5093731;28;20205;-74
2020/12/19 05:36:51;;;;;;;7.00;3.50;;;;;;;5.32;100.00;98353.03;5093229;28;20248;-74
2020/12/19 05:39:19;;;;;;;6.30;3.60;;;;;;;5.29;100.00;98356.81;5093495;28;20206;-74
2020/12/19 05:41:46;;;;;;;6.67;3.60;;;;;;;5.29;100.00;98359.47;5089680;28;20664;-74
2020/12/19 05:44:13;;;;;;;6.07;3.80;;;;;;;5.25;100.00;98357.31;5087869;28;20216;-74
2020/12/19 05:46:41;;;;;;;6.57;3.63;;;;;;;5.28;100.00;98354.34;5092987;28;20221;-73
2020/12/19 05:49:09;;;;;;;6.33;4.00;;;;;;;5.18;100.00;98358.94;5093522;28;20212;-74
2020/12/19 05:51:39;;;;;;;8.40;3.77;;;;;;;5.22;100.00;98357.59;5092847;28;20270;-74
2020/12/19 05:54:07;;;;;;;5.33;3.27;;;;;;;5.14;100.00;98354.94;5093581;28;20199;-74
2020/12/19 05:56:35;;;;;;;7.00;3.80;;;;;;;5.13;100.00;98355.94;5092698;28;20218;-74
2020/12/19 05:59:02;;;;;;;6.17;3.67;;;;;;;5.10;100.00;98359.72;5093537;28;20235;-73
2020/12/19 06:01:30;;;;;;;7.90;3.77;;;;;;;5.14;100.00;98358.41;5081704;28;20205;-75
2020/12/19 06:04:01;;;;;;;9.37;4.30;;;;;;;5.08;100.00;98364.34;5093189;28;20202;-74
2020/12/19 06:06:28;;;;;;;6.77;3.77;;;;;;;5.06;100.00;98365.47;5092949;28;20231;-73
2020/12/19 06:08:56;;;;;;;11.07;4.20;;;;;;;5.14;100.00;98371.63;5092726;28;20240;-73
2020/12/19 06:11:24;;;;;;;8.17;4.57;;;;;;;5.13;100.00;98367.34;5092562;28;20206;-73
2020/12/19 06:13:53;;;;;;;6.17;4.27;;;;;;;5.20;100.00;98367.53;5086748;28;20214;-73
2020/12/19 06:16:20;;;;;;;7.70;4.23;;;;;;;5.14;100.00;98362.88;5085179;28;20239;-73
2020/12/19 06:19:03;;;;;;;9.07;4.33;;;;;;;5.05;100.00;98364.66;5088844;28;20202;-72
2020/12/19 06:21:31;;;;;;;8.80;4.80;;;;;;;5.03;100.00;98363.97;5092669;28;20256;-73
2020/12/19 06:23:59;;;;;;;10.90;4.67;;;;;;;5.02;100.00;98370.25;5092433;28;20209;-75
2020/12/19 06:26:36;;;;;;;8.07;4.43;;;;;;;4.94;100.00;98369.38;5092432;28;20232;-72
2020/12/19 06:29:04;;;;;;;7.13;4.70;;;;;;;4.90;100.00;98371.53;5080151;28;20736;-73
2020/12/19 06:31:31;;;;;;;7.27;4.67;;;;;;;4.78;100.00;98369.31;5083466;28;20224;-74
2020/12/19 06:34:04;;;;;;;6.77;4.27;;;;;;;4.85;100.00;98375.59;5092307;28;20199;-72
2020/12/19 06:36:32;;;;;;;8.47;4.63;;;;;;;4.75;100.00;98374.88;5091860;28;20218;-74
2020/12/19 06:39:09;;;;;;;9.53;5.17;;;;;;;4.80;100.00;98370.81;5092304;28;20263;-74
2020/12/19 06:41:41;;;;;;;8.63;4.97;;;;;;;4.78;100.00;98369.31;5090068;28;20216;-72
2020/12/19 06:44:10;;;;;;;7.87;4.70;;;;;;;4.78;100.00;98374.59;5085188;28;20202;-72
2020/12/19 06:46:37;;;;;;;9.17;4.73;;;;;;;4.77;100.00;98372.94;5090225;28;20711;-74
2020/12/19 06:49:33;;;;;;;8.33;5.03;;;;;;;4.72;100.00;98378.66;5093973;28;20658;-73
2020/12/19 06:52:11;;;;;;;7.50;5.07;;;;;;;4.70;100.00;98372.72;5091792;28;20277;-74
2020/12/19 06:54:40;;;;;;;8.37;5.40;;;;;;;4.64;100.00;98375.16;5091706;28;20194;-72
2020/12/19 06:57:21;;;;;;;8.83;4.60;;;;;;;4.68;100.00;98382.59;5084739;28;20267;-71
2020/12/19 06:59:48;;;;;;;10.47;4.93;;;;;;;4.63;100.00;98382.25;5089821;28;20209;-73
2020/12/19 07:02:16;;;;;;;8.30;4.70;;;;;;;4.57;100.00;98377.56;5091782;28;20229;-72
2020/12/19 07:04:43;;;;;;;9.33;5.30;;;;;;;4.52;100.00;98384.31;5090836;28;20251;-73
2020/12/19 07:07:12;;;;;;;9.10;4.93;;;;;;;4.52;100.00;98374.56;5087729;28;20239;-73
2020/12/19 07:09:40;;;;;;;10.47;4.63;;;;;;;4.51;100.00;98378.19;5092174;28;20192;-73
2020/12/19 07:12:34;;;;;;;8.67;5.07;;;;;;;4.50;100.00;98376.53;5091041;28;20662;-73
2020/12/19 07:15:02;;;;;;;9.60;4.53;;;;;;;4.48;100.00;98378.50;5091296;28;20626;-73
2020/12/19 07:17:28;;;;;;;8.50;4.83;;;;;;;4.40;100.00;98383.72;5090902;28;20588;-72
2020/12/19 07:20:01;;;;;;;8.00;4.70;;;;;;;4.46;100.00;98382.28;5088931;28;20869;-73
2020/12/19 07:22:28;;;;;;;8.07;4.83;;;;;;;4.44;100.00;98382.44;5088831;28;20255;-72
2020/12/19 07:24:56;;;;;;;7.70;4.93;;;;;;;4.44;100.00;98384.25;5090455;28;20654;-72
2020/12/19 07:27:24;;;;;;;6.57;4.40;;;;;;;4.39;100.00;98395.28;5092864;28;20225;-72
2020/12/19 07:29:57;;;;;;;11.93;4.97;;;;;;;4.43;100.00;98399.25;5093518;28;20209;-72
2020/12/19 07:32:24;;;;;;;10.57;5.20;;;;;;;4.45;100.00;98391.19;5095628;28;20189;-71
2020/12/19 07:34:53;;;;;;;8.70;4.70;;;;;;;4.50;100.00;98391.56;5096275;28;20202;-74
2020/12/19 07:37:20;;;;;;;13.03;5.53;;;;;;;4.51;100.00;98401.97;5090767;28;20219;-73
2020/12/19 07:39:47;;;;;;;11.27;4.60;;;;;;;4.53;100.00;98400.00;5085363;28;20571;-75
2020/12/19 07:42:15;;;;;;;8.77;5.60;;;;;;;4.56;100.00;98404.16;5091936;28;20195;-72
2020/12/19 07:44:44;;;;;;;10.33;5.40;;;;;;;4.61;100.00;98405.34;5087970;28;20199;-78
2020/12/19 07:47:12;;;;;;;9.33;5.33;;;;;;;4.64;100.00;98401.56;5095788;28;20282;-74
2020/12/19 07:49:45;;;;;;;10.80;5.77;;;;;;;4.69;100.00;98397.50;5096083;28;20254;-79
2020/12/19 07:52:17;;;;;;;9.37;5.00;;;;;;;4.67;100.00;98404.75;5094923;28;20198;-73
2020/12/19 07:54:58;;;;;;;9.47;5.63;;;;;;;4.62;100.00;98412.31;5088803;28;20195;-79
2020/12/19 07:57:27;;;;;;;8.20;5.13;;;;;;;4.69;100.00;98396.66;5098592;28;20234;-84
2020/12/19 07:59:54;;;;;;;8.87;5.67;;;;;;;4.76;100.00;98405.63;5090082;28;20208;-80
2020/12/19 08:02:23;;;;;;;13.47;6.07;;;;;;;4.85;100.00;98402.06;5096537;28;20662;-83
2020/12/19 08:04:51;;;;;;;10.97;5.90;;;;;;;4.89;100.00;98408.69;5097528;28;20713;-74
2020/12/19 08:07:21;;;;;;;10.93;5.67;;;;;;;4.93;100.00;98415.34;5096440;28;20693;-78
2020/12/19 08:09:57;;;;;;;10.40;5.90;;;;;;;4.90;100.00;98411.19;5097550;28;20197;-83
2020/12/19 08:12:25;;;;;;;12.50;6.30;;;;;;;4.98;100.00;98415.69;5099960;28;20209;-85
2020/12/19 08:14:52;;;;;;;11.50;6.17;;;;;;;4.91;100.00;98410.19;5101852;28;20707;-76
2020/12/19 08:17:19;;;;;;;13.10;7.03;;;;;;;4.97;100.00;98417.50;5092355;28;20221;-73
2020/12/19 08:19:48;;;;;;;8.97;5.90;;;;;;;5.10;100.00;98409.16;5094473;28;20234;-72
2020/12/19 08:22:15;;;;;;;10.63;6.20;;;;;;;5.09;100.00;98410.13;5092008;28;20215;-71
2020/12/19 08:24:47;;;;;;;9.83;6.03;;;;;;;5.13;100.00;98404.38;5091224;28;20198;-72
2020/12/19 08:27:47;;;;;;;9.47;5.33;;;;;;;5.23;100.00;98405.06;5096658;28;20288;-81
2020/12/19 08:30:29;;;;;;;10.13;6.13;;;;;;;5.33;100.00;98399.69;5095147;28;20631;-75
2020/12/19 08:32:58;;;;;;;9.77;5.90;;;;;;;5.45;100.00;98393.97;5095690;28;20565;-78
2020/12/19 08:35:27;;;;;;;11.00;6.57;;;;;;;5.60;100.00;98397.66;5095203;28;20217;-73
2020/12/19 08:38:03;;;;;;;16.63;6.57;;;;;;;5.64;100.00;98403.44;5076269;28;20238;-74
2020/12/19 08:40:34;;;;;;;8.93;5.83;;;;;;;5.69;100.00;98399.31;5091979;28;20205;-73
2020/12/19 08:43:02;;;;;;;12.87;5.50;;;;;;;5.88;100.00;98399.06;5090749;28;20204;-74
2020/12/19 08:45:30;;;;;;;14.53;6.17;;;;;;;5.95;100.00;98397.41;5093138;28;20203;-73
2020/12/19 08:48:03;;;;;;;12.93;7.07;;;;;;;6.04;100.00;98401.75;5093859;28;20232;-73
2020/12/19 08:50:48;;;;;;;12.30;6.67;;;;;;;6.09;100.00;98395.97;5090092;28;20671;-71
2020/12/19 08:53:20;;;;;;;13.60;5.63;;;;;;;6.16;100.00;98402.28;5088639;28;20201;-71
2020/12/19 08:55:48;;;;;;;12.30;7.03;;;;;;;6.09;100.00;98402.09;5091246;28;20253;-72
2020/12/19 08:58:23;;;;;;;9.40;5.70;;;;;;;6.42;100.00;98408.25;5088915;28;20264;-71
2020/12/19 09:00:50;;;;;;;11.87;5.80;;;;;;;6.40;100.00;98400.47;5093741;28;20679;-71
2020/12/19 09:03:26;;;;;;;10.10;5.73;;;;;;;6.53;100.00;98411.41;5091480;28;20238;-73
2020/12/19 09:06:01;;;;;;;14.23;5.87;;;;;;;6.62;100.00;98413.06;5091534;28;20617;-74
2020/12/19 09:08:32;;;;;;;14.07;5.73;;;;;;;6.75;100.00;98416.03;5093857;28;20231;-71
2020/12/19 09:10:59;;;;;;;10.23;5.47;;;;;;;7.01;100.00;98416.66;5091391;28;20214;-71
2020/12/19 09:13:27;;;;;;;9.43;5.27;;;;;;;7.24;100.00;98417.63;5094036;28;20331;-72
2020/12/19 09:15:57;;;;;;;12.07;5.50;;;;;;;7.42;100.00;98417.41;5100947;28;20291;-73
2020/12/19 09:18:25;;;;;;;10.40;5.50;;;;;;;7.67;100.00;98421.63;5088393;28;20231;-73
2020/12/19 09:20:54;;;;;;;7.93;5.00;;;;;;;7.85;100.00;98424.84;5095569;28;20600;-71
2020/12/19 09:23:21;;;;;;;7.47;4.83;;;;;;;7.96;100.00;98422.63;5093155;28;20207;-72
2020/12/19 09:25:48;;;;;;;9.20;4.67;;;;;;;7.91;100.00;98417.00;5088097;28;20227;-74
2020/12/19 09:28:15;;;;;;;9.60;5.40;;;;;;;7.94;100.00;98419.34;5094593;28;20218;-72
2020/12/19 09:30:43;;;;;;;8.83;4.80;;;;;;;7.74;100.00;98423.41;5094948;28;20337;-78
2020/12/19 09:33:10;;;;;;;6.70;4.77;;;;;;;7.88;100.00;98424.50;5093262;28;20204;-77
2020/12/19 09:35:37;;;;;;;7.23;4.83;;;;;;;7.60;100.00;98421.47;5087995;28;20201;-77
2020/12/19 09:38:04;;;;;;;10.43;4.83;;;;;;;8.09;100.00;98422.91;5092480;28;20337;-74
2020/12/19 09:40:31;;;;;;;9.20;4.83;;;;;;;8.28;100.00;98419.78;5095091;28;20266;-73
2020/12/19 09:42:58;;;;;;;7.80;5.30;;;;;;;8.35;100.00;98420.75;5092225;28;20204;-74
2020/12/19 09:45:26;;;;;;;7.10;4.20;;;;;;;8.52;100.00;98413.50;5088278;28;20207;-74
2020/12/19 09:47:54;;;;;;;7.60;5.27;;;;;;;8.18;100.00;98424.47;5087053;28;20273;-73
2020/12/19 09:50:21;;;;;;;8.10;4.50;;;;;;;8.53;100.00;98413.31;5092139;28;20205;-80
2020/12/19 09:52:48;;;;;;;9.03;4.37;;;;;;;8.57;100.00;98411.13;5097672;28;20213;-80
2020/12/19 09:55:16;;;;;;;6.87;4.30;;;;;;;8.82;100.00;98408.06;5087776;28;20197;-78
2020/12/19 09:57:43;;;;;;;7.27;4.57;;;;;;;8.90;100.00;98410.69;5086294;28;20777;-79
2020/12/19 10:00:11;;;;;;;6.57;3.87;;;;;;;8.93;100.00;98407.63;5095772;28;20288;-76
2020/12/19 10:02:39;;;;;;;4.60;3.23;;;;;;;9.21;100.00;98403.38;5085700;28;20280;-75
2020/12/19 10:05:07;;;;;;;6.73;3.53;;;;;;;9.33;100.00;98393.09;5087837;28;20323;-74
2020/12/19 10:07:34;;;;;;;4.33;2.47;;;;;;;9.55;100.00;98400.97;5092701;28;20231;-76
2020/12/19 10:10:01;;;;;;;6.37;3.13;;;;;;;9.84;100.00;98402.78;5084530;28;20266;-76
2020/12/19 10:12:28;;;;;;;4.03;2.60;;;;;;;9.89;100.00;98403.88;5092200;28;20754;-76
2020/12/19 10:14:55;;;;;;;5.87;3.13;;;;;;;10.18;100.00;98398.50;5093297;28;20263;-78
2020/12/19 10:17:21;;;;;;;5.77;2.93;;;;;;;10.18;100.00;98400.31;5090678;28;20688;-74
2020/12/19 10:19:48;;;;;;;7.00;3.40;;;;;;;10.17;100.00;98393.34;5093163;28;20201;-80
2020/12/19 10:22:16;;;;;;;4.40;2.73;;;;;;;10.36;100.00;98392.72;5084513;28;20603;-75
2020/12/19 10:24:43;;;;;;;5.13;2.67;;;;;;;10.51;100.00;98388.97;5088403;28;20219;-78
2020/12/19 10:27:10;;;;;;;5.80;2.90;;;;;;;10.66;100.00;98388.91;5093785;28;20228;-80
2020/12/19 10:29:37;;;;;;;4.30;2.30;;;;;;;10.88;100.00;98384.38;5097049;28;20214;-80
2020/12/19 10:32:07;;;;;;;5.07;2.63;;;;;;;10.93;100.00;98373.94;5091505;28;20196;-81
2020/12/19 10:34:34;;;;;;;5.97;2.37;;;;;;;10.96;100.00;98372.50;5093533;28;20685;-79
2020/12/19 10:37:01;;;;;;;4.23;1.83;;;;;;;11.04;100.00;98369.72;5097942;28;20303;-80
2020/12/19 10:39:29;;;;;;;3.60;2.20;;;;;;;11.15;95.56;98371.84;5096192;28;20195;-77
2020/12/19 10:41:56;;;;;;;4.67;2.17;;;;;;;11.10;99.76;98362.75;5089258;28;20233;-79
2020/12/19 10:44:23;;;;;;;4.07;2.00;;;;;;;11.04;97.55;98367.03;5091569;28;20595;-77
2020/12/19 10:46:50;;;;;;;3.13;2.07;;;;;;;11.31;95.42;98358.16;5089975;28;20224;-76
2020/12/19 10:49:17;;;;;;;3.87;2.00;;;;;;;11.48;94.43;98359.50;5093860;28;20291;-75
2020/12/19 10:51:43;;;;;;;6.40;2.27;;;;;;;11.53;92.93;98354.41;5090012;28;20215;-76
2020/12/19 10:54:10;;;;;;;3.53;1.97;;;;;;;11.67;89.49;98357.16;5092957;28;20728;-81
2020/12/19 10:56:38;;;;;;;1.93;1.60;;;;;;;11.88;88.61;98357.84;5093018;28;20225;-76
2020/12/19 10:59:05;;;;;;;3.47;2.13;;;;;;;11.98;87.10;98345.72;5092064;28;20700;-76
2020/12/19 11:01:32;;;;;;;2.90;1.70;;;;;;;12.08;85.46;98340.03;5092577;28;20208;-77
2020/12/19 11:03:59;;;;;;;7.43;2.20;;;;;;;11.96;84.01;98340.81;5097804;28;20227;-76
2020/12/19 11:06:26;;;;;;;3.10;1.67;;;;;;;12.10;85.40;98334.47;5094394;28;20229;-78
2020/12/19 11:08:54;;;;;;;2.83;1.53;;;;;;;12.05;86.26;98335.06;5089763;28;20205;-78
2020/12/19 11:11:21;;;;;;;4.20;2.10;;;;;;;12.08;84.86;98330.13;5088212;28;20197;-75
2020/12/19 11:13:50;;;;;;;4.47;2.07;;;;;;;11.88;88.19;98331.13;5092964;28;20204;-75
2020/12/19 11:16:24;;;;;;;5.03;2.10;;;;;;;12.08;82.83;98326.63;5094207;28;20320;-75
2020/12/19 11:18:51;;;;;;;4.67;2.13;;;;;;;12.07;82.63;98327.69;5088780;28;20536;-75
2020/12/19 11:21:17;;;;;;;5.13;2.00;;;;;;;11.98;86.24;98320.03;5091363;28;20238;-76
2020/12/19 11:23:44;;;;;;;4.13;2.03;;;;;;;11.97;83.40;98313.03;5092689;28;20214;-76
2020/12/19 11:26:11;;;;;;;2.40;1.63;;;;;;;12.11;81.33;98315.50;5093728;28;20233;-73
2020/12/19 11:28:39;;;;;;;4.40;1.97;;;;;;;12.32;79.10;98309.19;5088405;28;20201;-78
2020/12/19 11:31:07;;;;;;;3.17;1.90;;;;;;;12.38;79.32;98303.00;5099696;28;20251;-77
2020/12/19 11:33:33;;;;;;;3.10;1.63;;;;;;;12.33;79.21;98301.75;5098342;28;20206;-80
2020/12/19 11:36:01;;;;;;;1.73;1.43;;;;;;;12.67;75.44;98306.09;5087339;28;20292;-79